Terminal Aerodrome Forecast
Issued by NWS Twin Cities, MN

Home | Current Version | Previous Version | Graphics & Text | Print | Product List | Glossary On
Versions: 1 2 3 4 5 6 7 8 9 10 11 12
974
FTUS43 KMPX 241722
TAFSTC
TAF
KSTC 241722Z 2418/2518 07007KT P6SM SCT035 BKN045
     FM250100 VRB03KT P6SM SCT050
     FM251200 15010G16KT P6SM BKN050=

USA.gov is the U.S. government's official web portal to all federal, state and local government web resources and services.